This is the latest recevied weather packets stored in our database for station/object OE-11053. If no packets are shown the sender has not sent any weather packets the latest 10 day(s).
| Time | Temp. | Humidity | Pressure | Rain* | Wind** | Luminosity | Snow |
|---|---|---|---|---|---|---|---|
| 1787764296 | 25.56° C | 56% | 1014.7 hPa | 0 mm | - | 45 W/m² | - |
| 1787763923 | 25.56° C | 55% | 1014.7 hPa | 0 mm | - | 51 W/m² | - |
| 1787763322 | 25.56° C | 55% | 1014.6 hPa | 0 mm | - | 58 W/m² | - |
| 1787762496 | 25.56° C | 55% | 1014.7 hPa | 0 mm | - | 58 W/m² | - |
| 1787762123 | 26.11° C | 54% | 1014.8 hPa | 0 mm | - | 90 W/m² | - |
| 1787761523 | 26.11° C | 54% | 1014.9 hPa | 0 mm | - | 70 W/m² | - |
| 1787760696 | 26.11° C | 52% | 1014.9 hPa | 0 mm | - | 70 W/m² | - |
| 1787760323 | 26.11° C | 52% | 1014.9 hPa | 0 mm | - | 109 W/m² | - |
| 1787759723 | 26.11° C | 52% | 1014.9 hPa | 0 mm | - | 90 W/m² | - |
| 1787758896 | 26.11° C | 52% | 1015 hPa | 0 mm | - | 288 W/m² | - |
| 1787758522 | 26.11° C | 52% | 1015 hPa | 0 mm | - | 377 W/m² | - |
| 1787757923 | 26.11° C | 52% | 1015.3 hPa | 0 mm | - | 416 W/m² | - |
| 1787757096 | 26.11° C | 51% | 1015.4 hPa | 0 mm | - | 486 W/m² | - |
| 1787756723 | 26.11° C | 51% | 1015.4 hPa | 0 mm | - | 467 W/m² | - |
| 1787756123 | 26.11° C | 49% | 1015.4 hPa | 0 mm | - | 428 W/m² | - |
| 1787755297 | 26.11° C | 49% | 1015.4 hPa | 0 mm | - | 531 W/m² | - |
| 1787754923 | 26.67° C | 50% | 1015.3 hPa | 0 mm | - | 569 W/m² | - |
| 1787754323 | 26.67° C | 50% | 1015.3 hPa | 0 mm | - | 710 W/m² | - |
| 1787753496 | 25.56° C | 51% | 1015.5 hPa | 0 mm | - | 518 W/m² | - |
| 1787753123 | 25° C | 54% | 1015.6 hPa | 0 mm | - | 237 W/m² | - |
| 1787752523 | 25.56° C | 52% | 1015.5 hPa | 0 mm | - | 301 W/m² | - |
| 1787751696 | 25.56° C | 52% | 1015.5 hPa | 0 mm | - | 646 W/m² | - |
| 1787751323 | 25.56° C | 52% | 1015.6 hPa | 0 mm | - | 710 W/m² | - |
| 1787749896 | 25° C | 56% | 1015.7 hPa | 0 mm | - | 512 W/m² | - |
| 1787749523 | 25° C | 55% | 1015.7 hPa | 0 mm | - | 486 W/m² | - |
* Rain latest hour (hover to see other rain measurements)
** Current wind speed in m/s (hover to see current wind gust speed)